createdAt,value
2022-12-03T00:01:02.647Z,101943.65
2022-12-03T00:03:36.911Z,101944.56
2022-12-03T00:06:07.496Z,101942.63
2022-12-03T00:08:39.261Z,101941.27
2022-12-03T00:11:11.051Z,101934.45
2022-12-03T00:13:42.677Z,101934.66
2022-12-03T00:16:14.360Z,101932.89
2022-12-03T00:18:45.979Z,101927.61
2022-12-03T00:21:17.950Z,101927.71
2022-12-03T00:23:49.477Z,101926.00
2022-12-03T00:26:21.291Z,101926.70
2022-12-03T00:28:54.809Z,101929.88
2022-12-03T00:31:26.754Z,101929.46
2022-12-03T00:33:58.532Z,101930.95
2022-12-03T00:36:30.415Z,101930.70
2022-12-03T00:39:02.109Z,101924.86
2022-12-03T00:41:33.715Z,101921.23
2022-12-03T00:44:05.923Z,101919.88
2022-12-03T00:46:37.631Z,101920.15
2022-12-03T00:49:09.313Z,101921.12
2022-12-03T00:51:41.029Z,101920.48
2022-12-03T00:54:13.021Z,101918.70
2022-12-03T00:56:44.617Z,101917.16
2022-12-03T00:59:16.462Z,101920.17
2022-12-03T01:01:48.236Z,101918.48
2022-12-03T01:04:19.981Z,101918.27
2022-12-03T01:06:51.838Z,101916.33
2022-12-03T01:09:23.664Z,101917.80
2022-12-03T01:11:55.522Z,101915.77
2022-12-03T01:14:27.212Z,101911.34
2022-12-03T01:16:58.773Z,101911.87
2022-12-03T01:19:30.561Z,101912.77
2022-12-03T01:22:02.557Z,101910.98
2022-12-03T01:24:34.330Z,101915.23
2022-12-03T01:27:06.035Z,101911.38
2022-12-03T01:29:37.651Z,101908.06
2022-12-03T01:32:19.710Z,101906.11
2022-12-03T01:34:53.267Z,101911.02
2022-12-03T01:37:26.685Z,101910.66
2022-12-03T01:39:58.455Z,101909.98
2022-12-03T01:42:32.487Z,101908.09
2022-12-03T01:45:02.686Z,101906.98
2022-12-03T01:47:36.706Z,101907.66
2022-12-03T01:50:08.631Z,101902.63
2022-12-03T01:52:41.445Z,101903.02
2022-12-03T01:55:17.514Z,101902.13
2022-12-03T01:57:51.043Z,101901.00
2022-12-03T02:00:27.116Z,101902.74
2022-12-03T02:03:01.016Z,101900.86
2022-12-03T02:05:34.137Z,101902.27
2022-12-03T02:08:32.055Z,101901.42
2022-12-03T02:11:06.659Z,101902.41
2022-12-03T02:13:38.859Z,101906.89
2022-12-03T02:16:10.930Z,101907.55
2022-12-03T02:18:42.994Z,101906.39
2022-12-03T02:21:19.470Z,101909.80
2022-12-03T02:23:59.089Z,101906.52
2022-12-03T02:26:31.117Z,101904.27
2022-12-03T02:29:03.788Z,101904.73
2022-12-03T02:31:35.712Z,101907.30
2022-12-03T02:34:09.529Z,101907.42
2022-12-03T02:36:41.780Z,101907.01
2022-12-03T02:39:13.597Z,101906.75
2022-12-03T02:42:08.840Z,101903.71
2022-12-03T02:44:40.506Z,101902.67
2022-12-03T02:47:12.690Z,101903.71
2022-12-03T02:49:44.627Z,101907.05
2022-12-03T02:52:16.448Z,101906.65
2022-12-03T02:54:48.284Z,101905.70
2022-12-03T02:57:20.075Z,101904.53
2022-12-03T02:59:51.744Z,101902.71
2022-12-03T03:02:23.757Z,101904.08
2022-12-03T03:04:55.599Z,101902.80
2022-12-03T03:07:27.575Z,101901.16
2022-12-03T03:09:59.442Z,101906.00
2022-12-03T03:12:33.646Z,101901.61
2022-12-03T03:15:12.614Z,101901.39
2022-12-03T03:17:45.355Z,101900.29
2022-12-03T03:20:17.536Z,101898.22
2022-12-03T03:22:49.189Z,101896.16
2022-12-03T03:25:22.558Z,101897.39
2022-12-03T03:27:54.227Z,101893.65
2022-12-03T03:30:25.882Z,101894.35
2022-12-03T03:32:57.667Z,101894.64
2022-12-03T03:35:29.405Z,101890.70
2022-12-03T03:38:01.395Z,101891.47
2022-12-03T03:40:33.211Z,101887.73
2022-12-03T03:43:05.123Z,101894.29
2022-12-03T03:45:36.835Z,101897.04
2022-12-03T03:48:08.789Z,101899.33
2022-12-03T03:50:40.582Z,101898.14
2022-12-03T03:53:12.958Z,101895.75
2022-12-03T03:55:44.838Z,101888.61
2022-12-03T03:58:16.798Z,101886.13
2022-12-03T04:00:50.883Z,101881.91
2022-12-03T04:03:22.549Z,101881.38
2022-12-03T04:05:54.399Z,101883.50
2022-12-03T04:08:25.975Z,101880.70
2022-12-03T04:11:15.421Z,101887.27
2022-12-03T04:13:47.218Z,101886.03
2022-12-03T04:16:18.922Z,101885.30
2022-12-03T04:18:50.956Z,101885.27
2022-12-03T04:21:41.722Z,101887.39
2022-12-03T04:24:14.072Z,101889.12
2022-12-03T04:27:03.788Z,101887.87
2022-12-03T04:29:35.560Z,101887.63
2022-12-03T04:32:25.226Z,101885.15
2022-12-03T04:35:14.324Z,101885.50
2022-12-03T04:37:46.195Z,101883.14
2022-12-03T04:40:31.791Z,101882.54
2022-12-03T04:43:03.602Z,101878.08
2022-12-03T04:45:35.432Z,101872.81
2022-12-03T04:48:07.583Z,101877.67
2022-12-03T04:50:39.102Z,101874.19
2022-12-03T04:53:11.122Z,101871.88
2022-12-03T04:55:42.717Z,101868.54
2022-12-03T04:58:14.654Z,101864.77
2022-12-03T05:00:46.549Z,101868.01
2022-12-03T05:03:18.444Z,101868.95
2022-12-03T05:05:50.069Z,101865.62
2022-12-03T05:08:21.986Z,101869.08
2022-12-03T05:10:53.685Z,101872.88
2022-12-03T05:13:25.210Z,101867.49
2022-12-03T05:15:56.910Z,101867.61
2022-12-03T05:18:28.733Z,101865.58
2022-12-03T05:21:00.415Z,101865.52
2022-12-03T05:23:32.104Z,101866.45
2022-12-03T05:26:04.065Z,101865.25
2022-12-03T05:28:35.816Z,101864.89
2022-12-03T05:31:07.693Z,101860.81
2022-12-03T05:33:44.005Z,101859.09
2022-12-03T05:36:16.440Z,101857.50
2022-12-03T05:38:48.049Z,101854.28
2022-12-03T05:41:37.593Z,101856.34
2022-12-03T05:44:09.294Z,101859.02
2022-12-03T05:46:40.922Z,101859.52
2022-12-03T05:49:12.567Z,101859.13
2022-12-03T05:51:44.244Z,101858.88
2022-12-03T05:54:16.066Z,101853.70
2022-12-03T05:56:47.919Z,101851.70
2022-12-03T05:59:19.603Z,101846.58
2022-12-03T06:01:51.155Z,101844.02
2022-12-03T06:04:22.989Z,101841.79
2022-12-03T06:06:54.733Z,101841.21
2022-12-03T06:09:26.638Z,101841.50
2022-12-03T06:11:58.539Z,101843.39
2022-12-03T06:14:32.114Z,101847.78
2022-12-03T06:17:04.909Z,101848.64
2022-12-03T06:19:36.614Z,101843.33
2022-12-03T06:22:08.159Z,101842.80
2022-12-03T06:24:39.934Z,101841.05
2022-12-03T06:27:11.750Z,101843.53
2022-12-03T06:29:43.755Z,101846.00
2022-12-03T06:32:15.658Z,101851.46
2022-12-03T06:34:47.442Z,101848.46
2022-12-03T06:37:19.103Z,101850.70
2022-12-03T06:39:50.812Z,101853.78
2022-12-03T06:42:22.580Z,101856.70
2022-12-03T06:44:54.738Z,101856.31
2022-12-03T06:47:26.560Z,101858.17
2022-12-03T06:49:58.173Z,101856.44
2022-12-03T06:52:29.936Z,101856.59
2022-12-03T06:55:01.574Z,101864.08
2022-12-03T06:57:33.139Z,101865.10
2022-12-03T07:00:05.267Z,101868.91
2022-12-03T07:02:37.064Z,101870.62
2022-12-03T07:05:10.039Z,101870.59
2022-12-03T07:07:41.745Z,101872.27
2022-12-03T07:10:14.958Z,101869.23
2022-12-03T07:12:46.636Z,101873.92
2022-12-03T07:15:18.684Z,101876.69
2022-12-03T07:17:51.216Z,101875.17
2022-12-03T07:20:22.948Z,101873.16
2022-12-03T07:22:54.507Z,101877.69
2022-12-03T07:25:26.239Z,101870.79
2022-12-03T07:27:58.025Z,101870.90
2022-12-03T07:30:29.853Z,101866.23
2022-12-03T07:33:01.395Z,101863.13
2022-12-03T07:35:33.031Z,101860.98
2022-12-03T07:38:04.755Z,101863.23
2022-12-03T07:40:36.936Z,101861.79
2022-12-03T07:43:09.095Z,101859.30
2022-12-03T07:45:40.677Z,101853.88
2022-12-03T07:48:12.733Z,101853.90
2022-12-03T07:50:44.681Z,101850.77
2022-12-03T07:53:16.279Z,101850.78
2022-12-03T07:55:48.124Z,101852.52
2022-12-03T07:58:19.823Z,101853.74
2022-12-03T08:00:51.594Z,101858.63
2022-12-03T08:03:23.221Z,101857.05
2022-12-03T08:05:54.913Z,101853.14
2022-12-03T08:08:26.623Z,101849.42
2022-12-03T08:10:58.342Z,101846.95
2022-12-03T08:13:30.959Z,101846.26
2022-12-03T08:16:10.187Z,101847.59
2022-12-03T08:18:42.059Z,101847.27
2022-12-03T08:21:14.831Z,101849.55
2022-12-03T08:23:46.560Z,101850.52
2022-12-03T08:26:23.401Z,101850.27
2022-12-03T08:28:55.572Z,101846.71
2022-12-03T08:31:33.256Z,101847.32
2022-12-03T08:34:18.890Z,101851.12
2022-12-03T08:36:53.649Z,101847.32
2022-12-03T08:39:33.644Z,101849.13
2022-12-03T08:42:30.691Z,101849.73
2022-12-03T08:45:41.448Z,101853.70
2022-12-03T08:48:32.699Z,101852.88
2022-12-03T08:51:07.726Z,101849.80
2022-12-03T08:53:43.162Z,101850.10
2022-12-03T08:56:23.763Z,101856.88
2022-12-03T08:58:57.312Z,101855.52
2022-12-03T09:01:36.535Z,101846.98
2022-12-03T09:04:23.936Z,101845.16
2022-12-03T09:06:56.360Z,101842.23
2022-12-03T09:09:28.067Z,101835.79
2022-12-03T09:12:02.199Z,101835.67
2022-12-03T09:14:33.902Z,101835.85
2022-12-03T09:17:06.371Z,101836.44
2022-12-03T09:19:44.292Z,101838.01
2022-12-03T09:22:17.641Z,101836.91
2022-12-03T09:24:49.253Z,101835.69
2022-12-03T09:27:22.703Z,101834.51
2022-12-03T09:29:54.630Z,101833.95
2022-12-03T09:32:26.463Z,101829.72
2022-12-03T09:34:58.303Z,101823.98
2022-12-03T09:37:30.175Z,101817.49
2022-12-03T09:40:02.174Z,101813.41
2022-12-03T09:42:33.875Z,101812.17
2022-12-03T09:45:11.016Z,101811.68
2022-12-03T09:47:44.292Z,101809.27
2022-12-03T09:50:19.756Z,101806.20
2022-12-03T09:52:54.896Z,101808.30
2022-12-03T09:55:28.628Z,101811.23
2022-12-03T09:58:00.881Z,101813.21
2022-12-03T10:00:33.112Z,101812.92
2022-12-03T10:03:09.101Z,101813.13
2022-12-03T10:05:47.932Z,101812.67
2022-12-03T10:08:22.792Z,101809.88
2022-12-03T10:10:56.741Z,101807.71
2022-12-03T10:13:31.298Z,101799.54
2022-12-03T10:16:03.756Z,101797.00
2022-12-03T10:18:41.486Z,101791.91
2022-12-03T10:21:20.464Z,101792.90
2022-12-03T10:23:55.378Z,101787.42
2022-12-03T10:26:41.073Z,101780.27
2022-12-03T10:29:17.744Z,101783.37
2022-12-03T10:31:57.177Z,101785.25
2022-12-03T10:34:31.913Z,101792.75
2022-12-03T10:37:18.756Z,101788.48
2022-12-03T10:40:01.490Z,101789.77
2022-12-03T10:42:35.246Z,101791.57
2022-12-03T10:45:21.155Z,101784.50
2022-12-03T10:48:08.182Z,101789.24
2022-12-03T10:50:45.187Z,101788.02
2022-12-03T10:53:17.330Z,101786.02
2022-12-03T10:55:51.264Z,101784.00
2022-12-03T10:58:23.711Z,101780.69
2022-12-03T11:00:56.581Z,101782.14
2022-12-03T11:03:30.529Z,101776.33
2022-12-03T11:06:03.200Z,101772.92
2022-12-03T11:08:36.932Z,101773.75
2022-12-03T11:11:11.658Z,101770.86
2022-12-03T11:13:50.845Z,101765.52
2022-12-03T11:17:08.936Z,101764.84
2022-12-03T11:19:49.899Z,101761.23
2022-12-03T11:22:41.959Z,101762.92
2022-12-03T11:25:57.403Z,101765.02
2022-12-03T11:28:54.017Z,101768.08
2022-12-03T11:31:40.551Z,101766.87
2022-12-03T11:34:44.230Z,101766.46
2022-12-03T11:37:31.351Z,101766.95
2022-12-03T11:40:21.424Z,101767.89
2022-12-03T11:42:53.320Z,101773.12
2022-12-03T11:45:32.859Z,101760.73
2022-12-03T11:48:10.264Z,101757.63
2022-12-03T11:50:44.451Z,101757.21
2022-12-03T11:53:18.946Z,101758.44
2022-12-03T11:56:06.276Z,101758.84
2022-12-03T11:58:39.702Z,101758.98
2022-12-03T12:01:11.418Z,101757.89
2022-12-03T12:03:47.181Z,101750.05
2022-12-03T12:06:20.930Z,101739.42
2022-12-03T12:09:04.033Z,101746.08
2022-12-03T12:11:37.493Z,101747.08
2022-12-03T12:14:09.958Z,101740.44
2022-12-03T12:16:46.085Z,101738.59
2022-12-03T12:19:38.627Z,101736.70
2022-12-03T12:22:18.572Z,101739.59
2022-12-03T12:24:53.183Z,101743.95
2022-12-03T12:27:30.725Z,101745.98
2022-12-03T12:30:05.207Z,101742.17
2022-12-03T12:32:42.538Z,101739.22
2022-12-03T12:35:19.719Z,101739.15
2022-12-03T12:37:59.006Z,101737.96
2022-12-03T12:40:34.130Z,101732.39
2022-12-03T12:43:13.542Z,101729.87
2022-12-03T12:45:47.712Z,101728.45
2022-12-03T12:48:24.163Z,101730.09
2022-12-03T12:51:02.395Z,101730.20
2022-12-03T12:53:35.876Z,101732.19
2022-12-03T12:56:15.686Z,101725.41
2022-12-03T12:58:47.379Z,101727.80
2022-12-03T13:01:23.572Z,101734.06
2022-12-03T13:03:55.841Z,101733.93
2022-12-03T13:06:29.915Z,101732.92
2022-12-03T13:09:02.075Z,101736.08
2022-12-03T13:11:41.445Z,101734.77
2022-12-03T13:14:16.478Z,101733.78
2022-12-03T13:16:48.995Z,101736.91
2022-12-03T13:19:25.018Z,101735.08
2022-12-03T13:21:57.850Z,101740.29
2022-12-03T13:24:38.794Z,101737.46
2022-12-03T13:27:26.975Z,101737.98
2022-12-03T13:30:00.450Z,101738.55
2022-12-03T13:32:34.670Z,101743.68
2022-12-03T13:35:08.702Z,101742.80
2022-12-03T13:37:41.081Z,101744.22
2022-12-03T13:40:21.962Z,101748.45
2022-12-03T13:42:54.412Z,101753.39
2022-12-03T13:45:35.606Z,101753.34
2022-12-03T13:48:19.238Z,101748.71
2022-12-03T13:50:51.617Z,101746.18
2022-12-03T13:53:26.114Z,101745.41
2022-12-03T13:56:01.665Z,101745.91
2022-12-03T13:58:34.913Z,101746.52
2022-12-03T14:01:06.718Z,101749.92
2022-12-03T14:03:38.380Z,101746.59
2022-12-03T14:06:10.273Z,101741.29
2022-12-03T14:08:41.908Z,101743.08
2022-12-03T14:11:34.270Z,101747.84
2022-12-03T14:14:05.831Z,101746.76
2022-12-03T14:16:37.689Z,101753.83
2022-12-03T14:19:09.617Z,101754.95
2022-12-03T14:21:41.630Z,101754.60
2022-12-03T14:24:13.397Z,101748.78
2022-12-03T14:26:45.032Z,101742.81
2022-12-03T14:29:16.778Z,101742.33
2022-12-03T14:31:48.493Z,101740.76
2022-12-03T14:34:20.419Z,101737.37
2022-12-03T14:36:52.198Z,101743.34
2022-12-03T14:39:23.930Z,101746.35
2022-12-03T14:42:13.232Z,101751.08
2022-12-03T14:44:46.747Z,101749.95
2022-12-03T14:47:20.293Z,101757.05
2022-12-03T14:49:53.180Z,101753.95
2022-12-03T14:52:25.119Z,101752.72
2022-12-03T14:54:56.807Z,101748.89
2022-12-03T14:57:28.975Z,101748.55
2022-12-03T15:00:00.699Z,101743.83
2022-12-03T15:02:32.474Z,101747.83
2022-12-03T15:05:04.838Z,101747.20
2022-12-03T15:07:38.761Z,101747.95
2022-12-03T15:10:11.707Z,101751.86
2022-12-03T15:12:43.413Z,101760.66
2022-12-03T15:15:15.103Z,101763.29
2022-12-03T15:17:47.461Z,101769.47
2022-12-03T15:20:19.567Z,101771.25
2022-12-03T15:22:51.109Z,101771.89
2022-12-03T15:25:25.615Z,101765.73
2022-12-03T15:27:57.363Z,101771.70
2022-12-03T15:30:29.250Z,101774.02
2022-12-03T15:33:00.995Z,101779.52
2022-12-03T15:35:32.792Z,101781.30
2022-12-03T15:38:04.552Z,101779.34
2022-12-03T15:40:38.339Z,101774.95
2022-12-03T15:43:10.507Z,101779.23
2022-12-03T15:45:42.364Z,101783.81
2022-12-03T15:48:14.657Z,101783.96
2022-12-03T15:50:46.283Z,101783.29
2022-12-03T15:53:18.098Z,101784.70
2022-12-03T15:55:49.756Z,101788.08
2022-12-03T15:58:21.303Z,101789.31
2022-12-03T16:00:53.114Z,101791.40
2022-12-03T16:03:25.095Z,101787.81
2022-12-03T16:05:56.767Z,101784.81
2022-12-03T16:08:28.404Z,101790.94
2022-12-03T16:11:00.351Z,101800.22
2022-12-03T16:13:32.108Z,101801.27
2022-12-03T16:16:04.051Z,101794.72
2022-12-03T16:18:36.058Z,101792.38
2022-12-03T16:21:07.751Z,101796.11
2022-12-03T16:23:39.401Z,101798.92
2022-12-03T16:26:11.075Z,101800.13
2022-12-03T16:28:42.657Z,101796.20
2022-12-03T16:31:14.328Z,101798.67
2022-12-03T16:33:46.216Z,101803.31
2022-12-03T16:36:18.333Z,101802.04
2022-12-03T16:38:49.922Z,101803.16
2022-12-03T16:41:22.463Z,101797.63
2022-12-03T16:43:54.424Z,101799.61
2022-12-03T16:46:26.852Z,101801.97
2022-12-03T16:48:59.485Z,101799.40
2022-12-03T16:51:31.300Z,101801.96
2022-12-03T16:54:03.152Z,101803.62
2022-12-03T16:56:35.019Z,101800.27
2022-12-03T16:59:06.712Z,101802.08
2022-12-03T17:01:38.420Z,101805.25
2022-12-03T17:04:10.395Z,101804.71
2022-12-03T17:06:41.979Z,101809.85
2022-12-03T17:09:13.825Z,101809.46
2022-12-03T17:11:45.640Z,101799.98
2022-12-03T17:14:17.221Z,101802.19
2022-12-03T17:16:48.931Z,101792.97
2022-12-03T17:19:20.729Z,101790.13
2022-12-03T17:21:54.173Z,101793.59
2022-12-03T17:24:25.790Z,101793.73
2022-12-03T17:26:57.339Z,101798.20
2022-12-03T17:29:29.068Z,101791.80
2022-12-03T17:32:00.965Z,101792.14
2022-12-03T17:34:32.806Z,101790.58
2022-12-03T17:37:04.518Z,101792.48
2022-12-03T17:39:36.226Z,101789.70
2022-12-03T17:42:08.056Z,101792.16
2022-12-03T17:44:39.600Z,101791.67
2022-12-03T17:47:11.344Z,101790.61
2022-12-03T17:49:43.235Z,101791.19
2022-12-03T17:52:15.202Z,101794.70
2022-12-03T17:55:10.036Z,101793.79
2022-12-03T17:57:38.632Z,101795.16
2022-12-03T18:00:12.697Z,101795.21
2022-12-03T18:02:44.622Z,101797.66
2022-12-03T18:05:16.523Z,101799.04
2022-12-03T18:07:48.417Z,101797.33
2022-12-03T18:10:20.452Z,101795.04
2022-12-03T18:12:53.979Z,101796.45
2022-12-03T18:15:28.832Z,101802.21
2022-12-03T18:18:00.390Z,101800.17
2022-12-03T18:20:32.169Z,101798.58
2022-12-03T18:23:04.150Z,101791.30
2022-12-03T18:25:35.838Z,101796.20
2022-12-03T18:28:07.633Z,101793.02
2022-12-03T18:30:39.377Z,101786.10
2022-12-03T18:33:11.458Z,101792.08
2022-12-03T18:35:43.307Z,101795.80
2022-12-03T18:38:15.720Z,101796.16
2022-12-03T18:40:48.046Z,101794.34
2022-12-03T18:43:19.833Z,101790.58
2022-12-03T18:45:51.625Z,101793.19
2022-12-03T18:48:23.400Z,101790.73
2022-12-03T18:50:56.530Z,101794.20
2022-12-03T18:53:28.206Z,101790.73
2022-12-03T18:55:59.923Z,101788.48
2022-12-03T18:58:32.141Z,101786.55
2022-12-03T19:01:04.003Z,101784.77
2022-12-03T19:03:36.428Z,101783.03
2022-12-03T19:06:14.072Z,101780.92
2022-12-03T19:08:51.770Z,101786.02
2022-12-03T19:11:23.960Z,101787.19
2022-12-03T19:13:57.527Z,101793.66
2022-12-03T19:16:29.272Z,101794.84
2022-12-03T19:19:01.140Z,101796.02
2022-12-03T19:21:33.959Z,101792.11
2022-12-03T19:26:58.943Z,101799.04
2022-12-03T19:29:30.918Z,101799.02
2022-12-03T19:32:02.873Z,101791.02
2022-12-03T19:34:34.943Z,101790.02
2022-12-03T19:37:06.517Z,101791.89
2022-12-03T19:39:38.559Z,101788.95
2022-12-03T19:42:10.235Z,101787.48
2022-12-03T19:44:42.210Z,101785.50
2022-12-03T19:47:14.249Z,101781.22
2022-12-03T19:49:45.959Z,101776.43
2022-12-03T19:52:17.604Z,101775.30
2022-12-03T19:54:49.380Z,101782.36
2022-12-03T19:57:23.461Z,101784.23
2022-12-03T19:59:56.036Z,101786.86
2022-12-03T20:02:28.211Z,101795.98
2022-12-03T20:05:00.415Z,101801.59
2022-12-03T20:07:32.964Z,101805.34
2022-12-03T20:10:05.598Z,101804.61
2022-12-03T20:12:37.528Z,101802.11
2022-12-03T20:15:11.081Z,101800.08
2022-12-03T20:17:42.920Z,101796.89
2022-12-03T20:20:15.448Z,101790.53
2022-12-03T20:22:47.297Z,101792.11
2022-12-03T20:25:19.247Z,101791.77
2022-12-03T20:27:50.904Z,101785.09
2022-12-03T20:30:22.974Z,101788.10
2022-12-03T20:32:54.571Z,101785.60
2022-12-03T20:35:26.879Z,101781.48
2022-12-03T20:37:58.463Z,101781.61
2022-12-03T20:40:30.251Z,101781.75
2022-12-03T20:43:01.881Z,101771.36
2022-12-03T20:45:33.777Z,101767.76
2022-12-03T20:48:05.731Z,101769.73
2022-12-03T20:50:37.376Z,101776.14
2022-12-03T20:53:24.222Z,101790.48
2022-12-03T20:55:59.727Z,101792.09
2022-12-03T20:58:31.604Z,101783.55
2022-12-03T21:01:15.687Z,101792.36
2022-12-03T21:03:48.819Z,101795.25
2022-12-03T21:06:21.260Z,101799.98
2022-12-03T21:08:55.015Z,101802.41
2022-12-03T21:11:29.650Z,101808.80
2022-12-03T21:14:01.859Z,101806.23
2022-12-03T21:19:28.012Z,101804.73
2022-12-03T21:21:59.778Z,101800.57
2022-12-03T21:24:31.446Z,101797.15
2022-12-03T21:27:03.203Z,101800.66
2022-12-03T21:29:34.877Z,101799.60
2022-12-03T21:32:07.016Z,101799.41
2022-12-03T21:34:38.830Z,101801.92
2022-12-03T21:37:10.660Z,101799.02
2022-12-03T21:39:42.467Z,101799.41
2022-12-03T21:42:18.630Z,101799.98
2022-12-03T21:45:08.198Z,101801.08
2022-12-03T21:47:38.848Z,101802.70
2022-12-03T21:50:12.260Z,101799.73
2022-12-03T21:52:44.249Z,101806.20
2022-12-03T21:55:15.937Z,101812.64
2022-12-03T21:57:47.604Z,101812.59
2022-12-03T22:00:20.111Z,101817.52
2022-12-03T22:02:52.459Z,101812.38
2022-12-03T22:05:24.465Z,101810.57
2022-12-03T22:07:56.713Z,101812.89
2022-12-03T22:10:28.548Z,101814.97
2022-12-03T22:13:00.291Z,101816.02
2022-12-03T22:15:32.349Z,101814.29
2022-12-03T22:18:04.892Z,101815.52
2022-12-03T22:20:36.568Z,101812.38
2022-12-03T22:23:08.479Z,101804.73
2022-12-03T22:25:40.124Z,101807.41
2022-12-03T22:28:11.891Z,101805.16
2022-12-03T22:30:43.521Z,101805.76
2022-12-03T22:33:15.422Z,101804.49
2022-12-03T22:35:56.939Z,101806.64
2022-12-03T22:38:29.596Z,101806.54
2022-12-03T22:41:01.678Z,101803.80
2022-12-03T22:43:33.415Z,101803.02
2022-12-03T22:46:05.369Z,101803.26
2022-12-03T22:48:37.510Z,101797.49
2022-12-03T22:51:14.189Z,101792.23
2022-12-03T22:53:45.857Z,101794.44
2022-12-03T22:56:17.571Z,101791.34
2022-12-03T22:58:49.520Z,101791.91
2022-12-03T23:01:25.573Z,101791.44
2022-12-03T23:03:57.719Z,101793.07
2022-12-03T23:06:30.464Z,101788.54
2022-12-03T23:09:02.254Z,101795.23
2022-12-03T23:11:33.828Z,101794.41
2022-12-03T23:14:05.945Z,101794.11
2022-12-03T23:16:37.625Z,101791.14
2022-12-03T23:19:09.737Z,101788.20
2022-12-03T23:21:41.821Z,101785.38
2022-12-03T23:24:13.794Z,101788.48
2022-12-03T23:26:45.775Z,101791.41
2022-12-03T23:29:18.070Z,101789.98
2022-12-03T23:31:49.791Z,101792.67
2022-12-03T23:34:21.686Z,101790.88
2022-12-03T23:36:53.451Z,101791.20
2022-12-03T23:39:25.384Z,101788.59
2022-12-03T23:41:57.275Z,101792.90
2022-12-03T23:44:30.169Z,101790.79
2022-12-03T23:47:02.373Z,101791.15
2022-12-03T23:49:34.470Z,101781.48
2022-12-03T23:52:06.219Z,101769.66
2022-12-03T23:54:39.210Z,101772.67
2022-12-03T23:57:10.872Z,101782.13
2022-12-03T23:59:43.629Z,101775.71
